Brookville Heights, Indiana
Current Conditions -  °F | °C
As of 1:35 PM on Monday 22 Dec 2014 (Local Time) from KMQJ Reporting Station
Broken Clouds Broken Clouds  
Wind Chill: 36°   Ceiling: 3700
Heat Index: 41°   Visibility: 10mi
Dew Point: 32°   Wind: 7mph
Humidity: 70%   Direction: 130°SE
Pressure: 29.83"   Gusts: NA
Location:  39.731°N, 85.9032°W
Report Text: KMQJ 221835Z AUTO 13006KT 10SM SCT023 SCT028 BKN037 05/00 A2983 RMK AO1
Loading
Personal Weather Stations






























Interactive Weather Map New forecast layout! Learn more

10-Day Weather Forecast

Advertisements
Track Severe Weather on mobile